Terminal Aerodrome Forecast
Issued by NWS

Home | Current Version | Previous Version | Text Only | Print | Product List | Glossary On
Versions: 1 2 3 4 5 6 7 8 9 10 11 12 13 14 15 16 17 18
321
FTUS44 KLZK 240532
TAFLLQ
TAF
KLLQ 240532Z 2406/2506 04005KT P6SM BKN050 BKN250
     FM241300 05007KT P6SM SCT250
     FM250000 08004KT P6SM FEW250=

USA.gov is the U.S. government's official web portal to all federal, state and local government web resources and services.